Time;durP1;ratioP1;P1;durP2;ratioP2;P2;SDS_P1;SDS_P2;PMS_P1;PMS_P2;Temp;Humidity;BMP_temperature;BMP_pressure;BME280_temperature;BME280_humidity;BME280_pressure;Samples;Min_cycle;Max_cycle;Signal;HPM_P1;HPM_P2
2022/05/05 00:01:15;;;;;;;14.30;8.40;;;;;;;10.43;65.73;101944.13;5045291;28;20029;-68
2022/05/05 00:03:40;;;;;;;16.42;8.48;;;;;;;10.59;65.68;101941.69;5045566;28;20490;-68
2022/05/05 00:06:05;;;;;;;12.32;7.85;;;;;;;10.69;65.77;101942.50;5045495;28;20580;-69
2022/05/05 00:08:30;;;;;;;13.82;8.52;;;;;;;10.76;65.57;101946.28;5048369;28;20091;-68
2022/05/05 00:16:24;;;;;;;12.82;8.00;;;;;;;11.05;65.11;101943.50;5041042;28;20094;-69
2022/05/05 00:18:49;;;;;;;12.18;7.85;;;;;;;11.11;64.84;101940.25;5046974;28;20029;-69
2022/05/05 00:21:15;;;;;;;12.95;7.70;;;;;;;11.20;64.97;101941.19;5046364;28;20520;-68
2022/05/05 00:23:40;;;;;;;12.20;7.57;;;;;;;11.27;64.64;101931.63;5044477;28;20039;-68
2022/05/05 00:26:05;;;;;;;13.13;7.80;;;;;;;11.27;64.53;101931.63;5044996;28;20517;-68
2022/05/05 00:28:31;;;;;;;14.68;7.60;;;;;;;11.21;64.65;101937.53;5045698;28;20142;-68
2022/05/05 00:30:56;;;;;;;13.57;7.82;;;;;;;11.16;64.76;101935.31;5047290;28;20032;-68
2022/05/05 00:33:21;;;;;;;12.73;7.45;;;;;;;11.16;64.70;101937.16;5040926;28;20127;-68
2022/05/05 00:35:47;;;;;;;15.02;8.25;;;;;;;11.18;64.86;101938.66;5047507;28;20110;-69
2022/05/05 00:38:12;;;;;;;18.15;8.07;;;;;;;11.20;64.97;101929.72;5045599;28;20028;-69
2022/05/05 00:40:37;;;;;;;17.92;8.32;;;;;;;11.25;64.70;101935.41;5043074;28;20040;-69
2022/05/05 00:43:03;;;;;;;14.18;7.53;;;;;;;11.23;64.69;101934.72;5042562;28;20102;-69
2022/05/05 00:45:28;;;;;;;16.13;8.52;;;;;;;11.23;64.65;101934.72;5046897;28;20486;-70
2022/05/05 00:48:04;;;;;;;13.57;8.65;;;;;;;11.02;64.93;101927.84;5044146;28;20060;-68
2022/05/05 00:50:32;;;;;;;13.23;9.02;;;;;;;10.91;64.55;101937.81;5044940;28;20029;-69
2022/05/05 00:52:57;;;;;;;14.40;8.50;;;;;;;10.81;65.04;101925.41;5042942;28;20108;-69
2022/05/05 00:55:23;;;;;;;17.50;8.85;;;;;;;10.80;64.73;101933.53;5044432;28;20178;-69
2022/05/05 00:57:48;;;;;;;13.98;9.20;;;;;;;10.68;65.05;101930.19;5047287;28;20033;-69
2022/05/05 01:00:14;;;;;;;13.98;8.15;;;;;;;10.58;65.10;101929.41;5046982;28;20473;-69
2022/05/05 01:02:39;;;;;;;13.70;8.45;;;;;;;10.49;65.39;101928.44;5043898;28;20033;-68
2022/05/05 01:05:05;;;;;;;15.63;8.60;;;;;;;10.45;65.52;101931.53;5044981;28;20036;-69
2022/05/05 01:07:30;;;;;;;15.93;8.88;;;;;;;10.35;66.10;101933.34;5045476;28;20021;-69
2022/05/05 01:09:56;;;;;;;14.73;9.32;;;;;;;10.19;66.73;101932.09;5043944;28;20028;-68
2022/05/05 01:12:23;;;;;;;16.95;9.48;;;;;;;10.10;66.95;101930.25;5044456;28;20045;-69
2022/05/05 01:14:49;;;;;;;15.82;9.23;;;;;;;10.05;67.48;101932.50;5043292;28;20568;-68
2022/05/05 01:17:14;;;;;;;15.75;9.65;;;;;;;9.93;67.69;101923.03;5041479;28;20016;-69
2022/05/05 01:19:40;;;;;;;15.98;9.05;;;;;;;9.93;67.74;101933.63;5049015;28;20647;-69
2022/05/05 01:22:06;;;;;;;15.88;9.45;;;;;;;9.97;68.00;101935.03;5045197;28;20044;-69
2022/05/05 01:30:00;;;;;;;15.43;9.52;;;;;;;9.85;68.25;101937.00;5041228;28;20043;-69
2022/05/05 01:32:33;;;;;;;18.23;9.75;;;;;;;9.90;68.58;101939.22;5043324;28;20029;-69
2022/05/05 01:34:58;;;;;;;18.23;9.40;;;;;;;9.80;68.16;101930.41;5046450;28;20029;-69
2022/05/05 01:37:24;;;;;;;19.75;9.95;;;;;;;9.78;68.12;101929.72;5045031;28;20032;-69
2022/05/05 01:39:49;;;;;;;16.50;10.02;;;;;;;9.89;68.65;101927.78;5043901;28;20112;-69
2022/05/05 01:42:14;;;;;;;17.40;10.18;;;;;;;9.91;68.38;101922.31;5046196;28;20135;-69
2022/05/05 01:44:39;;;;;;;20.35;9.88;;;;;;;9.94;68.61;101927.34;5041465;28;20037;-69
2022/05/05 01:47:05;;;;;;;16.48;9.90;;;;;;;9.98;68.38;101931.41;5043019;28;20029;-69
2022/05/05 01:49:30;;;;;;;17.00;9.57;;;;;;;9.93;68.26;101930.97;5039293;28;20059;-69
2022/05/05 01:51:55;;;;;;;14.57;9.10;;;;;;;9.91;68.48;101930.28;5047058;28;20108;-69
2022/05/05 01:54:21;;;;;;;12.18;8.27;;;;;;;9.99;68.52;101935.72;5044305;28;20037;-69
2022/05/05 01:56:46;;;;;;;15.75;9.75;;;;;;;9.90;68.44;101926.78;5045137;28;20028;-69
2022/05/05 01:59:11;;;;;;;16.65;9.65;;;;;;;9.94;68.74;101933.50;5042815;28;20032;-69
2022/05/05 02:01:37;;;;;;;14.35;9.60;;;;;;;9.80;68.38;101922.44;5042572;28;20032;-69
2022/05/05 02:04:02;;;;;;;15.52;9.80;;;;;;;9.80;68.49;101928.59;5042669;28;20020;-69
2022/05/05 02:06:27;;;;;;;17.27;9.70;;;;;;;9.82;68.63;101936.41;5044255;28;20068;-68
2022/05/05 02:08:52;;;;;;;14.27;8.88;;;;;;;9.78;68.91;101935.00;5038491;28;20051;-69
2022/05/05 02:11:18;;;;;;;14.55;9.02;;;;;;;9.75;68.91;101932.63;5043789;28;20033;-69
2022/05/05 02:13:43;;;;;;;14.18;9.48;;;;;;;9.60;68.93;101932.22;5043435;28;20654;-68
2022/05/05 02:16:09;;;;;;;13.98;9.10;;;;;;;9.50;69.01;101940.13;5043962;28;20056;-69
2022/05/05 02:18:34;;;;;;;15.13;8.65;;;;;;;9.30;69.01;101941.09;5044673;28;20484;-69
2022/05/05 02:20:59;;;;;;;14.88;8.20;;;;;;;9.07;68.98;101942.25;5046272;28;20039;-69
2022/05/05 02:23:25;;;;;;;11.85;7.70;;;;;;;8.83;69.56;101946.06;5042155;28;20032;-68
2022/05/05 02:25:50;;;;;;;12.52;7.72;;;;;;;8.66;70.12;101942.19;5045295;28;20091;-69
2022/05/05 02:28:15;;;;;;;12.50;7.20;;;;;;;8.45;70.14;101949.31;5041886;28;20029;-68
2022/05/05 02:30:40;;;;;;;12.43;8.25;;;;;;;8.29;70.47;101948.88;5040647;28;20600;-69
2022/05/05 02:33:06;;;;;;;14.07;8.23;;;;;;;8.20;70.92;101952.31;5044639;28;20115;-69
2022/05/05 02:35:32;;;;;;;12.63;9.05;;;;;;;8.11;71.15;101948.63;5043449;28;20055;-69
2022/05/05 02:40:41;;;;;;;18.42;10.20;;;;;;;8.18;72.07;101947.16;5046203;28;20641;-69
2022/05/05 02:43:06;;;;;;;17.95;11.20;;;;;;;8.21;72.45;101946.91;5045599;28;20028;-68
2022/05/05 02:45:32;;;;;;;21.00;11.52;;;;;;;8.15;73.22;101936.81;5043086;28;20040;-69
2022/05/05 02:47:58;;;;;;;16.27;10.50;;;;;;;8.22;73.32;101943.28;5043249;28;20032;-68
2022/05/05 02:50:24;;;;;;;18.42;10.50;;;;;;;8.22;73.65;101948.56;5041851;28;20033;-68
2022/05/05 02:52:49;;;;;;;16.83;10.90;;;;;;;8.21;73.53;101946.06;5042717;28;20032;-69
2022/05/05 02:55:14;;;;;;;16.65;10.70;;;;;;;8.18;73.66;101943.66;5040528;28;20029;-69
2022/05/05 02:57:40;;;;;;;20.17;11.38;;;;;;;8.14;73.89;101939.59;5042874;28;20063;-68
2022/05/05 03:00:10;;;;;;;17.98;11.02;;;;;;;8.09;74.05;101939.97;5044088;28;20029;-68
2022/05/05 03:02:37;;;;;;;18.80;11.07;;;;;;;8.24;74.07;101943.16;5041907;28;20029;-68
2022/05/05 03:05:02;;;;;;;19.05;10.80;;;;;;;8.33;74.07;101942.38;5043523;28;20037;-68
2022/05/05 03:07:28;;;;;;;15.32;10.13;;;;;;;8.35;73.92;101951.88;5042892;28;20036;-68
2022/05/05 03:09:53;;;;;;;18.15;10.75;;;;;;;8.45;73.84;101951.97;5045153;28;20033;-68
2022/05/05 03:12:18;;;;;;;16.20;9.48;;;;;;;8.50;73.79;101948.94;5042553;28;20039;-69
2022/05/05 03:14:46;;;;;;;17.50;10.00;;;;;;;8.50;73.45;101948.94;5041190;28;20111;-68
2022/05/05 03:17:12;;;;;;;17.25;9.63;;;;;;;8.54;73.45;101942.41;5042298;28;20060;-69
2022/05/05 03:19:37;;;;;;;17.73;10.60;;;;;;;8.57;73.43;101936.84;5047110;28;20104;-69
2022/05/05 03:22:03;;;;;;;15.65;9.75;;;;;;;8.65;73.24;101952.91;5045795;28;20044;-69
2022/05/05 03:24:29;;;;;;;17.95;9.27;;;;;;;8.61;72.99;101944.41;5045308;28;20496;-69
2022/05/05 03:26:54;;;;;;;15.43;10.07;;;;;;;8.66;73.07;101942.19;5044309;28;20107;-68
2022/05/05 03:29:19;;;;;;;19.52;11.27;;;;;;;8.69;72.86;101946.41;5047101;28;20056;-69
2022/05/05 03:31:45;;;;;;;15.57;9.48;;;;;;;8.76;72.73;101944.91;5047522;28;20115;-68
2022/05/05 03:34:10;;;;;;;16.75;10.10;;;;;;;8.82;72.67;101947.03;5048026;28;20036;-68
2022/05/05 03:36:35;;;;;;;19.10;10.68;;;;;;;8.83;72.67;101942.56;5047139;28;20035;-68
2022/05/05 03:39:01;;;;;;;18.50;11.25;;;;;;;8.85;72.59;101948.56;5048849;28;20025;-69
2022/05/05 03:41:26;;;;;;;17.45;11.15;;;;;;;8.81;72.69;101934.75;5076537;28;20031;-69
2022/05/05 03:43:52;;;;;;;16.65;10.43;;;;;;;8.85;72.60;101952.06;5046293;28;20494;-69
2022/05/05 03:46:18;;;;;;;19.52;10.90;;;;;;;8.83;72.49;101946.06;5047017;28;20025;-69
2022/05/05 03:48:43;;;;;;;18.80;11.18;;;;;;;8.87;72.69;101952.75;5046509;28;20086;-68
2022/05/05 03:51:08;;;;;;;17.48;11.32;;;;;;;8.85;72.40;101952.06;5044828;28;20129;-69
2022/05/05 03:53:33;;;;;;;18.10;11.30;;;;;;;8.90;72.78;101957.78;5046727;28;20083;-68
2022/05/05 03:55:59;;;;;;;16.92;11.23;;;;;;;8.88;72.82;101956.25;5048478;28;20393;-68
2022/05/05 03:58:28;;;;;;;15.85;10.20;;;;;;;8.87;72.94;101963.34;5044043;28;20330;-69
2022/05/05 04:00:53;;;;;;;18.27;10.45;;;;;;;8.82;72.66;101967.38;5045791;28;20113;-68
2022/05/05 04:03:30;;;;;;;17.45;9.82;;;;;;;8.84;72.94;101966.28;5043615;28;20112;-68
2022/05/05 04:06:03;;;;;;;20.00;10.70;;;;;;;8.85;73.00;101978.53;5044600;28;20033;-68
2022/05/05 04:08:30;;;;;;;29.65;9.70;;;;;;;8.82;73.00;101973.50;5049526;28;20021;-68
2022/05/05 04:10:56;;;;;;;15.50;10.52;;;;;;;8.83;73.12;101975.19;5049791;28;20041;-68
2022/05/05 04:13:21;;;;;;;24.20;10.68;;;;;;;8.80;73.03;101979.91;5045041;28;20044;-68
2022/05/05 04:15:46;;;;;;;18.27;10.48;;;;;;;8.77;73.04;101983.66;5049615;28;20029;-68
2022/05/05 04:18:12;;;;;;;21.05;10.52;;;;;;;8.69;73.22;101978.19;5049115;28;20065;-68
2022/05/05 04:20:38;;;;;;;18.80;10.70;;;;;;;8.66;73.43;101983.72;5049576;28;20428;-67
2022/05/05 04:23:03;;;;;;;14.13;9.38;;;;;;;8.52;73.53;101982.25;5047789;28;20039;-68
2022/05/05 04:25:29;;;;;;;25.13;10.30;;;;;;;8.49;73.63;101989.63;5049271;28;20401;-68
2022/05/05 04:27:54;;;;;;;19.20;10.63;;;;;;;8.43;73.72;101983.03;5049626;28;20504;-68
2022/05/05 04:30:19;;;;;;;28.40;10.55;;;;;;;8.47;74.15;101992.38;5048556;28;20029;-68
2022/05/05 04:32:45;;;;;;;28.92;11.77;;;;;;;8.53;74.22;102001.63;5048761;28;20017;-67
2022/05/05 04:35:11;;;;;;;21.27;11.02;;;;;;;8.58;74.29;101999.41;5048741;28;20028;-68
2022/05/05 04:37:38;;;;;;;24.20;11.10;;;;;;;8.65;74.31;101996.13;5049174;28;20023;-68
2022/05/05 04:40:04;;;;;;;23.35;11.23;;;;;;;8.69;74.39;101991.44;5046914;28;20040;-67
2022/05/05 04:42:29;;;;;;;30.65;10.98;;;;;;;8.74;74.13;101998.97;5044359;28;20024;-68
2022/05/05 04:44:55;;;;;;;22.27;10.98;;;;;;;8.69;74.12;101999.38;5046219;28;20028;-68
2022/05/05 04:47:20;;;;;;;18.83;11.60;;;;;;;8.78;74.37;101998.59;5044119;28;20124;-68
2022/05/05 04:49:45;;;;;;;20.70;11.13;;;;;;;8.82;74.37;102005.28;5041856;28;20028;-68
2022/05/05 04:52:11;;;;;;;20.27;11.27;;;;;;;8.84;74.36;102007.81;5044418;28;20033;-68
2022/05/05 04:54:36;;;;;;;20.98;10.77;;;;;;;8.89;74.33;102010.91;5043581;28;20053;-68
2022/05/05 04:57:02;;;;;;;17.48;10.32;;;;;;;8.96;74.74;102007.63;5042171;28;20055;-68
2022/05/05 04:59:27;;;;;;;18.02;11.10;;;;;;;8.97;74.54;102009.28;5045710;28;20037;-67
2022/05/05 05:01:52;;;;;;;19.40;11.13;;;;;;;9.04;74.71;102006.97;5047885;28;20035;-68
2022/05/05 05:04:18;;;;;;;19.10;11.45;;;;;;;9.11;75.07;102009.91;5043724;28;20363;-67
2022/05/05 05:06:43;;;;;;;20.58;11.80;;;;;;;9.22;75.21;102009.81;5044632;28;20147;-67
2022/05/05 05:09:08;;;;;;;28.95;11.70;;;;;;;9.28;74.83;102014.59;5045759;28;20779;-67
2022/05/05 05:11:34;;;;;;;18.42;11.38;;;;;;;9.33;74.57;102015.03;5044517;28;20046;-68
2022/05/05 05:13:59;;;;;;;18.85;11.43;;;;;;;9.39;74.90;102027.75;5045192;28;20031;-68
2022/05/05 05:16:25;;;;;;;20.77;11.88;;;;;;;9.45;75.01;102021.06;5046985;28;20024;-68
2022/05/05 05:18:53;;;;;;;19.30;12.02;;;;;;;9.49;74.94;102025.97;5045662;28;20040;-68
2022/05/05 05:21:19;;;;;;;18.13;12.02;;;;;;;9.52;75.20;102022.19;5044817;28;20486;-68
2022/05/05 05:23:44;;;;;;;19.33;12.02;;;;;;;9.63;75.33;102019.47;5045405;28;20074;-67
2022/05/05 05:26:09;;;;;;;23.90;12.98;;;;;;;9.70;75.22;102025.06;5042346;28;20119;-67
2022/05/05 05:28:34;;;;;;;21.02;12.52;;;;;;;9.77;75.42;102031.50;5044323;28;20040;-68
2022/05/05 05:31:00;;;;;;;21.50;12.68;;;;;;;9.82;75.33;102023.97;5044077;28;20271;-68
2022/05/05 05:33:25;;;;;;;21.30;13.55;;;;;;;9.92;75.13;102038.09;5041037;28;20028;-68
2022/05/05 05:35:51;;;;;;;18.17;12.02;;;;;;;9.97;75.69;102043.00;5046690;28;20076;-67
2022/05/05 05:38:22;;;;;;;24.25;13.63;;;;;;;10.00;75.73;102040.91;5044429;28;20560;-67
2022/05/05 05:40:47;;;;;;;25.88;14.38;;;;;;;10.16;75.10;102043.03;5044107;28;20036;-69
2022/05/05 05:43:13;;;;;;;28.45;14.15;;;;;;;10.27;75.30;102042.06;5046443;28;20037;-68
2022/05/05 05:45:38;;;;;;;25.25;15.35;;;;;;;10.40;75.17;102047.94;5045235;28;20037;-67
2022/05/05 05:48:06;;;;;;;30.85;17.05;;;;;;;10.40;74.67;102043.47;5045123;28;20037;-67
2022/05/05 05:50:31;;;;;;;29.52;17.75;;;;;;;10.54;74.76;102044.88;5042611;28;20059;-68
2022/05/05 05:52:58;;;;;;;33.88;17.40;;;;;;;10.70;74.91;102047.81;5044509;28;20060;-68
2022/05/05 05:55:23;;;;;;;36.28;19.42;;;;;;;10.82;74.48;102045.81;5042500;28;20037;-68
2022/05/05 05:57:48;;;;;;;35.15;19.38;;;;;;;10.91;74.27;102052.09;5041835;28;20033;-68
2022/05/05 06:00:14;;;;;;;37.88;19.58;;;;;;;10.96;73.50;102050.69;5044811;28;20495;-68
2022/05/05 06:05:23;;;;;;;33.10;19.20;;;;;;;11.25;73.49;102047.94;5043093;28;20091;-67
2022/05/05 06:07:48;;;;;;;30.92;18.40;;;;;;;11.36;73.18;102053.09;5044245;28;20032;-68
2022/05/05 06:10:17;;;;;;;34.28;19.50;;;;;;;11.41;72.53;102044.66;5045352;28;20081;-68
2022/05/05 06:12:42;;;;;;;31.23;18.40;;;;;;;11.62;72.71;102055.94;5044793;28;20040;-68
2022/05/05 06:15:08;;;;;;;30.75;17.92;;;;;;;11.71;72.23;102057.69;5045068;28;20025;-68
2022/05/05 06:17:34;;;;;;;35.00;17.63;;;;;;;11.83;71.52;102050.34;5042487;28;20025;-68
2022/05/05 06:19:59;;;;;;;32.58;18.27;;;;;;;11.89;71.31;102055.09;5048934;28;20025;-67
2022/05/05 06:22:25;;;;;;;33.15;18.02;;;;;;;11.99;70.92;102055.88;5042858;28;20021;-68
2022/05/05 06:24:50;;;;;;;32.75;17.77;;;;;;;12.12;70.51;102054.66;5042318;28;20028;-68
2022/05/05 06:27:15;;;;;;;36.00;17.77;;;;;;;12.18;69.98;102056.75;5046573;28;20035;-69
2022/05/05 06:29:40;;;;;;;31.58;17.73;;;;;;;12.29;69.48;102061.84;5047004;28;20094;-65
2022/05/05 06:32:06;;;;;;;35.83;18.02;;;;;;;12.36;69.10;102062.91;5047435;28;20032;-69
2022/05/05 06:34:31;;;;;;;31.70;18.08;;;;;;;12.44;69.29;102056.84;5043388;28;20029;-69
2022/05/05 06:36:58;;;;;;;31.17;17.30;;;;;;;12.52;68.71;102065.72;5046280;28;20041;-69
2022/05/05 06:39:23;;;;;;;34.80;18.70;;;;;;;12.59;69.11;102064.13;5046914;28;20036;-70
2022/05/05 06:41:48;;;;;;;32.92;18.30;;;;;;;12.63;68.59;102069.97;5046843;28;20528;-69
2022/05/05 06:44:14;;;;;;;32.20;18.63;;;;;;;12.61;67.73;102066.63;5045854;28;20025;-69
2022/05/05 06:46:39;;;;;;;36.25;18.55;;;;;;;12.66;67.02;102075.00;5046660;28;20107;-69
2022/05/05 06:49:05;;;;;;;36.97;19.75;;;;;;;12.68;66.65;102073.00;5046639;28;20492;-68
2022/05/05 06:51:30;;;;;;;35.85;18.90;;;;;;;12.70;66.63;102077.19;5047045;28;20025;-69
2022/05/05 06:53:56;;;;;;;36.15;19.20;;;;;;;12.71;65.98;102080.69;5046888;28;20057;-69
2022/05/05 06:56:24;;;;;;;29.73;18.88;;;;;;;12.68;65.71;102081.84;5050662;28;20040;-69
2022/05/05 06:58:49;;;;;;;39.15;20.02;;;;;;;12.69;65.71;102080.00;5051429;28;20025;-69
2022/05/05 07:06:42;;;;;;;35.60;18.83;;;;;;;12.61;65.21;102093.28;5048600;28;20464;-69
2022/05/05 07:11:52;;;;;;;37.40;18.70;;;;;;;12.61;65.59;102103.94;5046759;28;20087;-69
2022/05/05 07:14:18;;;;;;;37.35;19.20;;;;;;;12.64;65.64;102098.28;5047953;28;20037;-70
2022/05/05 07:16:43;;;;;;;35.20;19.85;;;;;;;12.67;65.65;102108.66;5050643;28;20029;-69
2022/05/05 07:19:10;;;;;;;37.40;20.50;;;;;;;12.70;65.78;102109.16;5050854;28;20387;-69
2022/05/05 07:21:37;;;;;;;39.10;19.88;;;;;;;12.71;65.54;102113.50;5046835;28;20428;-68
2022/05/05 07:24:03;;;;;;;37.72;19.48;;;;;;;12.71;65.90;102113.50;5046206;28;20553;-68
2022/05/05 07:26:28;;;;;;;35.20;19.65;;;;;;;12.79;66.50;102112.75;5049977;28;20112;-69
2022/05/05 07:28:54;;;;;;;37.80;19.92;;;;;;;12.83;66.38;102116.78;5050716;28;20115;-68
2022/05/05 07:31:19;;;;;;;34.72;19.38;;;;;;;12.84;66.62;102123.81;5050151;28;20029;-68
2022/05/05 07:33:44;;;;;;;39.00;19.60;;;;;;;12.87;66.08;102126.16;5049896;28;20024;-68
2022/05/05 07:36:10;;;;;;;34.55;19.73;;;;;;;12.95;66.44;102128.03;5050069;28;20089;-69
2022/05/05 07:38:35;;;;;;;35.13;19.30;;;;;;;12.97;65.94;102115.38;5050447;28;20029;-69
2022/05/05 07:41:00;;;;;;;33.75;20.25;;;;;;;13.10;66.20;102121.19;5049995;28;20021;-69
2022/05/05 07:43:26;;;;;;;39.70;21.00;;;;;;;13.16;66.33;102123.22;5052887;28;20148;-69
2022/05/05 07:45:51;;;;;;;38.38;20.88;;;;;;;13.21;66.30;102117.44;5049229;28;20468;-69
2022/05/05 07:48:16;;;;;;;37.92;22.20;;;;;;;13.33;66.12;102122.38;5046485;28;20040;-68
2022/05/05 07:50:42;;;;;;;40.05;22.75;;;;;;;13.35;65.89;102129.38;5048441;28;20519;-69
2022/05/05 07:53:07;;;;;;;37.63;22.50;;;;;;;13.44;65.67;102121.25;5047481;28;20547;-69
2022/05/05 07:55:33;;;;;;;40.28;23.02;;;;;;;13.57;66.19;102137.66;5048640;28;20033;-69
2022/05/05 07:57:58;;;;;;;41.05;22.77;;;;;;;13.68;65.52;102130.41;5049427;28;20044;-68
2022/05/05 08:00:24;;;;;;;40.17;22.42;;;;;;;13.69;65.29;102135.56;5049409;28;20029;-69
2022/05/05 08:02:50;;;;;;;42.40;25.45;;;;;;;13.74;65.25;102133.25;5047591;28;20033;-69
2022/05/05 08:05:15;;;;;;;44.95;25.30;;;;;;;13.79;65.30;102130.94;5044863;28;20057;-69
2022/05/05 08:07:45;;;;;;;47.17;28.08;;;;;;;13.81;65.16;102150.31;5045622;28;20033;-69
2022/05/05 08:10:11;;;;;;;51.92;27.27;;;;;;;13.87;64.67;102146.16;5042879;28;20032;-69
2022/05/05 08:12:36;;;;;;;53.60;30.55;;;;;;;13.84;64.66;102151.81;5044760;28;20098;-68
2022/05/05 08:15:02;;;;;;;50.22;28.90;;;;;;;13.93;65.40;102150.88;5046602;28;20032;-69
2022/05/05 08:17:28;;;;;;;51.05;30.23;;;;;;;14.06;65.43;102153.09;5046169;28;20028;-68
2022/05/05 08:19:53;;;;;;;52.25;29.88;;;;;;;14.07;65.08;102147.59;5049054;28;20766;-69
2022/05/05 08:22:19;;;;;;;66.78;35.47;;;;;;;14.18;64.90;102146.47;5050041;28;20044;-69
2022/05/05 08:30:12;;;;;;;55.20;32.30;;;;;;;14.50;65.01;102156.44;5048460;28;20044;-69
2022/05/05 08:32:37;;;;;;;58.10;31.63;;;;;;;14.43;64.30;102147.38;5047269;28;20029;-68
2022/05/05 08:35:03;;;;;;;59.50;33.75;;;;;;;14.49;64.01;102166.31;5046847;28;20033;-68
2022/05/05 08:37:28;;;;;;;55.28;33.67;;;;;;;14.47;63.96;102170.13;5046530;28;20029;-68
2022/05/05 08:39:54;;;;;;;60.60;34.22;;;;;;;14.45;63.97;102166.75;5049136;28;20382;-68
2022/05/05 08:42:19;;;;;;;61.15;34.95;;;;;;;14.52;64.24;102173.16;5049096;28;20402;-68
2022/05/05 08:44:44;;;;;;;61.17;34.83;;;;;;;14.71;64.69;102177.34;5048148;28;20104;-68
2022/05/05 08:47:14;;;;;;;60.65;33.83;;;;;;;14.84;64.30;102172.38;5046468;28;20090;-68
2022/05/05 08:49:40;;;;;;;60.33;35.35;;;;;;;14.98;64.16;102173.53;5049157;28;20097;-67
2022/05/05 08:52:08;;;;;;;63.67;36.50;;;;;;;15.03;63.74;102177.38;5048824;28;20099;-68
2022/05/05 08:54:34;;;;;;;64.13;36.88;;;;;;;15.10;63.17;102178.41;5048567;28;20033;-68
2022/05/05 08:57:00;;;;;;;61.75;37.13;;;;;;;15.06;62.70;102173.56;5040839;28;20152;-68
2022/05/05 08:59:25;;;;;;;66.90;36.78;;;;;;;15.15;62.60;102185.91;5050532;28;20112;-68
2022/05/05 09:01:51;;;;;;;64.70;36.70;;;;;;;15.17;62.23;102187.41;5048034;28;20021;-68
2022/05/05 09:04:17;;;;;;;67.50;37.65;;;;;;;15.10;62.08;102177.56;5042806;28;20041;-68
2022/05/05 09:06:46;;;;;;;69.68;38.53;;;;;;;15.13;62.13;102185.25;5046611;28;20035;-66
2022/05/05 09:09:25;;;;;;;;;;;;;;;15.29;62.05;102192.41;5044714;28;20037;-68
2022/05/05 09:12:15;;;;;;;66.80;36.03;;;;;;;15.27;61.54;102194.44;5042898;28;20000;-69
2022/05/05 09:14:49;;;;;;;67.97;37.05;;;;;;;15.32;62.13;102186.72;5044233;28;20036;-68
2022/05/05 09:17:18;;;;;;;69.90;38.35;;;;;;;15.47;61.87;102191.25;5039980;28;20107;-68
2022/05/05 09:19:45;;;;;;;;;;;;;;;15.65;62.26;102193.75;5042282;28;20087;-69
2022/05/05 09:22:11;;;;;;;63.30;36.08;;;;;;;15.78;62.05;102193.22;5048195;28;19942;-68
2022/05/05 09:24:43;;;;;;;61.40;36.42;;;;;;;15.89;61.95;102194.69;5045652;28;20028;-68
2022/05/05 09:27:23;;;;;;;63.80;36.33;;;;;;;16.03;61.54;102193.97;5047239;28;20040;-68
2022/05/05 09:30:06;;;;;;;64.68;37.28;;;;;;;16.13;61.38;102191.91;5046014;28;20525;-68
2022/05/05 09:32:40;;;;;;;57.92;34.63;;;;;;;16.23;61.33;102195.25;5046202;28;20049;-68
2022/05/05 09:35:16;;;;;;;60.45;36.38;;;;;;;16.28;61.07;102195.53;5045996;28;20041;-67
2022/05/05 09:37:47;;;;;;;62.13;36.38;;;;;;;16.31;60.58;102197.88;5042098;28;20083;-68
2022/05/05 09:40:17;;;;;;;63.25;36.42;;;;;;;16.23;59.72;102192.56;5046345;28;20542;-68
2022/05/05 09:42:44;;;;;;;54.88;33.65;;;;;;;16.39;59.66;102195.16;5047295;28;20025;-68
2022/05/05 09:45:16;;;;;;;56.85;33.60;;;;;;;16.49;59.75;102200.31;5046187;28;20056;-68
2022/05/05 09:47:43;;;;;;;56.05;33.03;;;;;;;16.58;59.84;102201.09;5048238;28;20064;-67
2022/05/05 09:50:08;;;;;;;59.88;34.45;;;;;;;16.52;59.25;102193.75;5047554;28;20025;-68
2022/05/05 09:58:08;;;;;;;55.35;33.00;;;;;;;16.48;57.71;102200.44;5047762;28;20043;-69
2022/05/05 10:05:52;;;;;;;57.95;34.55;;;;;;;16.22;57.11;102204.28;5042610;28;20064;-67
2022/05/05 10:08:29;;;;;;;59.67;34.97;;;;;;;16.22;57.28;102212.34;5047206;28;20078;-68
2022/05/05 10:10:55;;;;;;;56.75;35.08;;;;;;;16.40;57.39;102207.53;5041153;28;20033;-68
2022/05/05 10:13:20;;;;;;;56.85;34.88;;;;;;;16.46;57.44;102208.69;5046355;28;20047;-68
2022/05/05 10:15:48;;;;;;;57.72;34.22;;;;;;;16.48;57.41;102211.19;5046969;28;20071;-69
2022/05/05 10:18:16;;;;;;;57.08;34.10;;;;;;;16.55;56.83;102204.13;5042688;28;20116;-68
2022/05/05 10:20:41;;;;;;;53.88;33.92;;;;;;;16.68;56.91;102210.59;5039821;28;20429;-68
2022/05/05 10:23:11;;;;;;;53.42;31.13;;;;;;;16.77;56.54;102197.13;5043382;28;20035;-69
2022/05/05 10:25:39;;;;;;;43.70;29.23;;;;;;;16.73;56.17;102205.53;5041260;28;20048;-68
2022/05/05 10:28:41;;;;;;;47.53;29.15;;;;;;;16.94;56.04;102196.00;5043279;28;20496;-69
2022/05/05 10:31:28;;;;;;;42.45;27.80;;;;;;;16.84;55.26;102201.63;5044371;28;20494;-68
2022/05/05 10:34:15;;;;;;;48.67;28.63;;;;;;;16.95;55.82;102198.50;5040389;28;20040;-68
2022/05/05 10:36:57;;;;;;;47.35;29.80;;;;;;;17.07;55.24;102208.84;5047408;28;20027;-68
2022/05/05 10:39:22;;;;;;;49.70;28.95;;;;;;;17.26;55.61;102195.75;5046473;28;20052;-68
2022/05/05 10:41:51;;;;;;;45.90;28.80;;;;;;;17.29;54.91;102194.53;5047489;28;20082;-68
2022/05/05 10:44:16;;;;;;;42.60;26.55;;;;;;;17.44;54.55;102202.66;5045987;28;20051;-68
2022/05/05 10:46:50;;;;;;;37.30;24.42;;;;;;;17.60;54.81;102203.28;5046911;28;20060;-69
2022/05/05 10:49:37;;;;;;;37.88;24.10;;;;;;;17.72;54.12;102205.59;5047246;28;20025;-68
2022/05/05 10:52:08;;;;;;;36.75;23.80;;;;;;;17.64;53.53;102201.94;5046196;28;20021;-68
2022/05/05 10:54:34;;;;;;;34.67;22.73;;;;;;;17.79;53.26;102201.13;5045943;28;20083;-68
2022/05/05 10:57:25;;;;;;;34.67;21.75;;;;;;;18.04;53.35;102204.38;5046676;28;20179;-68
2022/05/05 11:00:07;;;;;;;30.83;20.10;;;;;;;17.99;52.02;102204.94;5046602;28;20053;-68
2022/05/05 11:02:32;;;;;;;33.05;19.95;;;;;;;17.87;52.04;102206.41;5047112;28;20017;-67
2022/05/05 11:05:36;;;;;;;28.00;16.83;;;;;;;17.98;51.55;102205.97;5045716;28;20017;-68
2022/05/05 11:08:26;;;;;;;23.33;15.68;;;;;;;17.97;50.95;102203.47;5030947;28;20071;-68
2022/05/05 11:13:47;;;;;;;28.80;19.00;;;;;;;18.09;50.58;102207.34;5046088;28;20043;-68
2022/05/05 11:22:19;;;;;;;34.78;21.52;;;;;;;18.09;50.84;102210.03;5046924;28;20512;-69
2022/05/05 11:24:47;;;;;;;28.60;19.98;;;;;;;18.17;51.45;102201.84;5045376;28;20025;-69
2022/05/05 11:27:18;;;;;;;32.85;21.60;;;;;;;18.33;51.35;102198.13;5044192;28;20032;-68
2022/05/05 11:29:54;;;;;;;35.85;22.92;;;;;;;18.37;50.37;102204.78;5046136;28;20033;-69
2022/05/05 11:32:21;;;;;;;38.97;22.92;;;;;;;18.34;50.47;102200.63;5046544;28;20516;-69
2022/05/05 11:34:48;;;;;;;29.52;20.38;;;;;;;18.24;50.13;102205.47;5043778;28;20042;-68
2022/05/05 11:37:14;;;;;;;33.10;21.80;;;;;;;18.36;50.46;102208.50;5046592;28;20060;-69
2022/05/05 11:39:40;;;;;;;31.17;21.67;;;;;;;18.55;50.62;102200.69;5049803;28;20049;-68
2022/05/05 11:42:07;;;;;;;31.33;20.80;;;;;;;18.85;50.16;102206.81;5050519;28;20025;-68
2022/05/05 11:44:40;;;;;;;34.50;22.23;;;;;;;19.04;49.63;102205.34;5049936;28;20025;-69
2022/05/05 11:47:14;;;;;;;37.13;22.95;;;;;;;19.10;49.23;102206.44;5050215;28;20513;-68
2022/05/05 11:49:44;;;;;;;34.00;23.30;;;;;;;18.98;49.24;102202.59;5050970;28;20032;-68
2022/05/05 11:52:11;;;;;;;36.92;23.90;;;;;;;19.11;49.52;102200.88;5049722;28;20515;-68
2022/05/05 11:54:37;;;;;;;34.28;22.67;;;;;;;19.34;49.74;102206.00;5049089;28;20413;-68
2022/05/05 11:57:03;;;;;;;37.88;24.52;;;;;;;19.35;48.76;102202.28;5049919;28;20017;-68
2022/05/05 12:02:17;;;;;;;36.65;24.48;;;;;;;19.82;50.05;102200.78;5049937;28;20035;-69
2022/05/05 12:04:44;;;;;;;36.55;24.10;;;;;;;20.05;49.45;102195.09;5048933;28;20039;-68
2022/05/05 12:07:19;;;;;;;38.38;24.50;;;;;;;20.27;49.02;102199.38;5050336;28;20029;-68